createdAt,value
2023-04-29T00:00:34.820Z,100600.84
2023-04-29T00:03:01.757Z,100595.28
2023-04-29T00:05:28.423Z,100582.75
2023-04-29T00:07:54.912Z,100588.88
2023-04-29T00:10:21.311Z,100605.53
2023-04-29T00:12:48.753Z,100600.25
2023-04-29T00:15:15.344Z,100598.81
2023-04-29T00:17:41.898Z,100600.09
2023-04-29T00:20:09.059Z,100606.78
2023-04-29T00:22:35.561Z,100588.13
2023-04-29T00:25:01.990Z,100608.88
2023-04-29T00:27:28.423Z,100603.50
2023-04-29T00:29:55.010Z,100611.47
2023-04-29T00:32:22.012Z,100613.28
2023-04-29T00:34:48.521Z,100622.09
2023-04-29T00:37:15.300Z,100620.41
2023-04-29T00:39:42.090Z,100630.41
2023-04-29T00:42:09.929Z,100628.16
2023-04-29T00:44:36.438Z,100634.19
2023-04-29T00:47:02.884Z,100627.44
2023-04-29T00:49:29.275Z,100636.34
2023-04-29T00:51:57.819Z,100639.63
2023-04-29T00:54:24.327Z,100629.88
2023-04-29T00:56:51.791Z,100633.72
2023-04-29T00:59:18.667Z,100637.84
2023-04-29T01:01:45.487Z,100633.97
2023-04-29T01:04:12.195Z,100636.16
2023-04-29T01:07:09.958Z,100643.03
2023-04-29T01:10:07.691Z,100643.28
2023-04-29T01:12:37.051Z,100638.81
2023-04-29T01:15:21.164Z,100652.06
2023-04-29T01:18:05.757Z,100652.66
2023-04-29T01:20:33.406Z,100650.16
2023-04-29T01:22:59.821Z,100648.69
2023-04-29T01:25:26.460Z,100649.69
2023-04-29T01:28:03.958Z,100656.56
2023-04-29T01:30:50.226Z,100655.09
2023-04-29T01:33:39.084Z,100661.75
2023-04-29T01:36:30.102Z,100662.22
2023-04-29T01:39:03.303Z,100671.25
2023-04-29T01:41:49.301Z,100670.63
2023-04-29T01:44:18.592Z,100670.28
2023-04-29T01:46:52.217Z,100678.59
2023-04-29T01:49:24.729Z,100677.38
2023-04-29T01:51:51.325Z,100681.84
2023-04-29T01:54:18.027Z,100680.88
2023-04-29T01:56:44.865Z,100677.53
2023-04-29T01:59:11.846Z,100690.06
2023-04-29T02:01:38.236Z,100691.00
2023-04-29T02:04:05.155Z,100695.31
2023-04-29T02:06:32.217Z,100701.97
2023-04-29T02:08:58.727Z,100699.66
2023-04-29T02:11:25.216Z,100700.75
2023-04-29T02:13:51.684Z,100695.09
2023-04-29T02:16:18.889Z,100695.44
2023-04-29T02:18:46.104Z,100699.06
2023-04-29T02:21:12.550Z,100704.22
2023-04-29T02:23:39.026Z,100701.47
2023-04-29T02:26:06.353Z,100700.13
2023-04-29T02:28:34.806Z,100696.50
2023-04-29T02:31:01.280Z,100705.06
2023-04-29T02:33:28.078Z,100709.41
2023-04-29T02:35:54.487Z,100719.25
2023-04-29T02:38:21.049Z,100713.72
2023-04-29T02:40:47.658Z,100717.56
2023-04-29T02:43:14.096Z,100714.44
2023-04-29T02:45:40.615Z,100703.00
2023-04-29T02:48:07.572Z,100725.00
2023-04-29T02:50:34.087Z,100713.94
2023-04-29T02:53:00.588Z,100718.28
2023-04-29T02:55:27.016Z,100724.88
2023-04-29T02:57:53.494Z,100718.72
2023-04-29T03:00:20.690Z,100729.19
2023-04-29T03:02:47.326Z,100728.59
2023-04-29T03:05:13.892Z,100732.06
2023-04-29T03:07:40.311Z,100733.34
2023-04-29T03:10:07.408Z,100726.63
2023-04-29T03:12:34.717Z,100724.94
2023-04-29T03:15:01.246Z,100723.88
2023-04-29T03:17:27.743Z,100721.91
2023-04-29T03:19:54.592Z,100712.81
2023-04-29T03:22:21.260Z,100724.09
2023-04-29T03:24:47.690Z,100724.09
2023-04-29T03:27:14.172Z,100738.63
2023-04-29T03:29:40.642Z,100733.72
2023-04-29T03:32:07.352Z,100736.47
2023-04-29T03:34:34.463Z,100742.38
2023-04-29T03:37:01.298Z,100732.16
2023-04-29T03:39:32.247Z,100730.47
2023-04-29T03:41:59.573Z,100735.16
2023-04-29T03:44:26.336Z,100731.53
2023-04-29T03:46:52.824Z,100733.72
2023-04-29T03:49:19.234Z,100737.56
2023-04-29T03:51:45.697Z,100723.94
2023-04-29T03:54:13.117Z,100742.94
2023-04-29T03:56:39.801Z,100742.56
2023-04-29T03:59:06.403Z,100746.00
2023-04-29T04:01:33.322Z,100746.00
2023-04-29T04:04:00.159Z,100752.47
2023-04-29T04:06:26.796Z,100752.00
2023-04-29T04:08:53.357Z,100752.63
2023-04-29T04:11:19.754Z,100739.28
2023-04-29T04:13:46.200Z,100753.72
2023-04-29T04:16:12.884Z,100757.06
2023-04-29T04:18:39.530Z,100747.72
2023-04-29T04:21:10.243Z,100757.91
2023-04-29T04:23:40.444Z,100751.59
2023-04-29T04:26:07.638Z,100755.25
2023-04-29T04:28:34.134Z,100766.94
2023-04-29T04:31:00.573Z,100759.31
2023-04-29T04:33:27.406Z,100761.81
2023-04-29T04:35:54.407Z,100770.44
2023-04-29T04:38:20.891Z,100770.88
2023-04-29T04:40:47.334Z,100770.06
2023-04-29T04:43:13.764Z,100764.16
2023-04-29T04:45:40.218Z,100783.50
2023-04-29T04:48:06.970Z,100790.09
2023-04-29T04:50:33.490Z,100793.09
2023-04-29T04:52:59.910Z,100799.94
2023-04-29T04:55:26.344Z,100796.09
2023-04-29T04:57:52.797Z,100808.91
2023-04-29T05:00:19.555Z,100807.00
2023-04-29T05:02:46.191Z,100817.28
2023-04-29T05:05:13.345Z,100827.09
2023-04-29T05:07:39.882Z,100822.88
2023-04-29T05:10:08.430Z,100820.16
2023-04-29T05:12:35.380Z,100832.53
2023-04-29T05:15:02.542Z,100840.59
2023-04-29T05:17:29.126Z,100840.19
2023-04-29T05:19:55.853Z,100841.25
2023-04-29T05:22:22.387Z,100840.63
2023-04-29T05:24:48.848Z,100847.00
2023-04-29T05:27:15.624Z,100854.69
2023-04-29T05:29:42.034Z,100847.47
2023-04-29T05:32:08.430Z,100854.38
2023-04-29T05:34:34.847Z,100857.78
2023-04-29T05:37:01.270Z,100860.38
2023-04-29T05:39:27.750Z,100848.94
2023-04-29T05:41:54.129Z,100865.97
2023-04-29T05:44:20.719Z,100860.72
2023-04-29T05:46:48.631Z,100872.00
2023-04-29T05:49:15.915Z,100864.59
2023-04-29T05:51:42.305Z,100874.78
2023-04-29T05:54:08.752Z,100881.41
2023-04-29T05:56:35.268Z,100882.47
2023-04-29T05:59:01.687Z,100885.22
2023-04-29T06:01:28.094Z,100896.72
2023-04-29T06:03:54.735Z,100897.78
2023-04-29T06:06:21.426Z,100905.66
2023-04-29T06:08:48.276Z,100910.72
2023-04-29T06:11:14.729Z,100915.38
2023-04-29T06:13:41.174Z,100924.91
2023-04-29T06:16:07.942Z,100924.72
2023-04-29T06:18:34.442Z,100928.94
2023-04-29T06:21:00.867Z,100933.84
2023-04-29T06:23:27.228Z,100936.59
2023-04-29T06:25:53.609Z,100939.97
2023-04-29T06:28:20.211Z,100944.63
2023-04-29T06:30:46.679Z,100945.94
2023-04-29T06:33:13.844Z,100950.81
2023-04-29T06:35:41.225Z,100948.69
2023-04-29T06:38:10.313Z,100952.75
2023-04-29T06:40:36.783Z,100954.41
2023-04-29T06:43:04.611Z,100958.47
2023-04-29T06:45:31.660Z,100957.03
2023-04-29T06:47:58.135Z,100964.66
2023-04-29T06:50:24.653Z,100973.59
2023-04-29T06:52:51.096Z,100974.44
2023-04-29T06:55:17.935Z,100985.97
2023-04-29T06:57:44.345Z,100983.00
2023-04-29T07:00:11.534Z,100991.28
2023-04-29T07:02:39.159Z,100993.19
2023-04-29T07:05:06.481Z,100995.75
2023-04-29T07:07:33.041Z,101003.38
2023-04-29T07:09:59.505Z,101000.38
2023-04-29T07:12:26.478Z,101005.47
2023-04-29T07:14:53.236Z,100995.28
2023-04-29T07:17:20.661Z,101006.34
2023-04-29T07:19:47.225Z,101008.03
2023-04-29T07:22:13.684Z,101015.06
2023-04-29T07:24:40.102Z,101023.28
2023-04-29T07:27:06.972Z,101022.03
2023-04-29T07:29:33.563Z,101025.41
2023-04-29T07:31:59.975Z,101025.38
2023-04-29T07:34:26.436Z,101029.19
2023-04-29T07:36:52.836Z,101029.13
2023-04-29T07:39:19.370Z,101021.91
2023-04-29T07:41:45.936Z,101032.09
2023-04-29T07:44:12.364Z,101032.09
2023-04-29T07:46:38.932Z,101031.03
2023-04-29T07:49:06.967Z,101031.03
2023-04-29T07:51:33.543Z,101042.09
2023-04-29T07:54:00.054Z,101039.31
2023-04-29T07:56:26.786Z,101038.66
2023-04-29T07:58:53.212Z,101040.59
2023-04-29T08:01:19.634Z,101037.63
2023-04-29T08:03:46.480Z,101041.84
2023-04-29T08:06:13.316Z,101044.59
2023-04-29T08:08:39.871Z,101055.19
2023-04-29T08:11:06.716Z,101057.94
2023-04-29T08:13:33.359Z,101054.53
2023-04-29T08:15:59.871Z,101058.75
2023-04-29T08:18:26.539Z,101064.47
2023-04-29T08:20:53.237Z,101060.47
2023-04-29T08:23:19.672Z,101066.00
2023-04-29T08:25:46.334Z,101068.75
2023-04-29T08:28:13.139Z,101068.31
2023-04-29T08:30:41.118Z,101065.94
2023-04-29T08:33:08.299Z,101079.09
2023-04-29T08:35:37.556Z,101068.44
2023-04-29T08:38:07.857Z,101071.81
2023-04-29T08:40:35.766Z,101079.91
2023-04-29T08:43:04.486Z,101070.09
2023-04-29T08:45:32.530Z,101073.28
2023-04-29T08:47:59.270Z,101082.75
2023-04-29T08:50:27.993Z,101074.22
2023-04-29T08:52:55.964Z,101080.13
2023-04-29T08:55:22.530Z,101083.91
2023-04-29T08:57:50.574Z,101086.00
2023-04-29T09:00:18.471Z,101088.72
2023-04-29T09:02:51.235Z,101089.72
2023-04-29T09:05:17.882Z,101096.50
2023-04-29T09:07:46.035Z,101102.63
2023-04-29T09:10:13.065Z,101103.72
2023-04-29T09:12:39.510Z,101101.56
2023-04-29T09:15:06.889Z,101105.81
2023-04-29T09:17:43.262Z,101104.50
2023-04-29T09:20:22.080Z,101113.41
2023-04-29T09:22:50.789Z,101110.03
2023-04-29T09:25:17.762Z,101114.78
2023-04-29T09:27:44.259Z,101119.84
2023-04-29T09:30:12.537Z,101130.06
2023-04-29T09:32:39.803Z,101124.09
2023-04-29T09:35:21.247Z,101128.34
2023-04-29T09:37:47.804Z,101120.66
2023-04-29T09:40:40.738Z,101123.81
2023-04-29T09:43:16.023Z,101117.16
2023-04-29T09:45:47.378Z,101125.78
2023-04-29T09:48:15.683Z,101116.91
2023-04-29T09:50:44.031Z,101130.59
2023-04-29T09:53:11.798Z,101130.31
2023-04-29T09:55:53.741Z,101123.94
2023-04-29T09:58:33.819Z,101127.41
2023-04-29T10:01:01.644Z,101140.22
2023-04-29T10:03:33.501Z,101152.41
2023-04-29T10:06:01.623Z,101149.19
2023-04-29T10:08:29.789Z,101152.59
2023-04-29T10:11:00.251Z,101149.19
2023-04-29T10:13:28.360Z,101145.44
2023-04-29T10:16:25.449Z,101144.84
2023-04-29T10:18:56.475Z,101154.97
2023-04-29T10:21:32.308Z,101162.19
2023-04-29T10:24:00.170Z,101171.41
2023-04-29T10:26:29.145Z,101166.94
2023-04-29T10:28:56.870Z,101163.56
2023-04-29T10:31:27.489Z,101173.53
2023-04-29T10:33:57.609Z,101174.22
2023-04-29T10:36:26.158Z,101171.72
2023-04-29T10:38:57.165Z,101169.63
2023-04-29T10:41:49.381Z,101175.59
2023-04-29T10:44:15.839Z,101169.69
2023-04-29T10:46:42.331Z,101186.91
2023-04-29T10:49:11.214Z,101186.69
2023-04-29T10:51:42.837Z,101181.59
2023-04-29T10:54:14.429Z,101175.19
2023-04-29T10:56:41.919Z,101184.59
2023-04-29T10:59:13.169Z,101190.97
2023-04-29T11:01:50.360Z,101179.13
2023-04-29T11:04:18.509Z,101192.72
2023-04-29T11:06:53.092Z,101180.38
2023-04-29T11:09:26.787Z,101183.72
2023-04-29T11:11:58.010Z,101178.59
2023-04-29T11:14:31.565Z,101181.47
2023-04-29T11:17:07.787Z,101180.75
2023-04-29T11:19:42.103Z,101187.81
2023-04-29T11:22:14.067Z,101175.97
2023-04-29T11:25:11.450Z,101171.38
2023-04-29T11:27:40.235Z,101178.50
2023-04-29T11:30:08.793Z,101173.00
2023-04-29T11:32:37.886Z,101177.09
2023-04-29T11:35:15.567Z,101181.69
2023-04-29T11:37:44.878Z,101177.59
2023-04-29T11:40:13.261Z,101178.81
2023-04-29T11:42:48.016Z,101181.13
2023-04-29T11:45:16.702Z,101179.31
2023-04-29T11:47:48.337Z,101179.78
2023-04-29T11:50:17.791Z,101183.28
2023-04-29T11:52:46.832Z,101177.41
2023-04-29T11:55:14.532Z,101183.47
2023-04-29T11:57:41.049Z,101189.78
2023-04-29T12:00:14.287Z,101196.38
2023-04-29T12:02:45.037Z,101192.16
2023-04-29T12:05:13.272Z,101195.84
2023-04-29T12:07:40.196Z,101191.59
2023-04-29T12:10:11.027Z,101187.84
2023-04-29T12:12:40.797Z,101196.28
2023-04-29T12:15:10.115Z,101202.59
2023-04-29T12:17:37.466Z,101201.13
2023-04-29T12:20:04.578Z,101201.06
2023-04-29T12:22:32.265Z,101202.16
2023-04-29T12:24:58.738Z,101206.59
2023-04-29T12:27:26.557Z,101204.22
2023-04-29T12:29:53.200Z,101207.25
2023-04-29T12:32:23.875Z,101212.13
2023-04-29T12:34:52.906Z,101216.16
2023-04-29T12:37:23.442Z,101211.72
2023-04-29T12:39:50.789Z,101232.38
2023-04-29T12:42:17.703Z,101214.75
2023-04-29T12:44:47.108Z,101215.66
2023-04-29T12:47:14.662Z,101221.44
2023-04-29T12:49:42.506Z,101218.09
2023-04-29T12:52:10.460Z,101225.34
2023-04-29T12:54:38.067Z,101223.22
2023-04-29T12:57:04.593Z,101227.91
2023-04-29T12:59:31.174Z,101224.53
2023-04-29T13:01:57.658Z,101227.31
2023-04-29T13:04:24.647Z,101226.47
2023-04-29T13:06:54.315Z,101229.63
2023-04-29T13:09:20.710Z,101229.38
2023-04-29T13:11:47.244Z,101227.03
2023-04-29T13:14:13.684Z,101232.31
2023-04-29T13:16:40.972Z,101233.06
2023-04-29T13:19:26.498Z,101232.66
2023-04-29T13:21:53.918Z,101239.03
2023-04-29T13:24:21.028Z,101235.63
2023-04-29T13:26:50.939Z,101241.03
2023-04-29T13:29:18.812Z,101243.59
2023-04-29T13:31:45.336Z,101237.91
2023-04-29T13:34:11.758Z,101245.56
2023-04-29T13:36:38.624Z,101245.34
2023-04-29T13:39:05.016Z,101247.66
2023-04-29T13:41:34.915Z,101246.63
2023-04-29T13:44:02.361Z,101260.03
2023-04-29T13:46:31.528Z,101257.09
2023-04-29T13:49:17.270Z,101250.25
2023-04-29T13:52:27.298Z,101258.94
2023-04-29T13:57:50.320Z,101252.94
2023-04-29T13:59:53.335Z,101251.84
2023-04-29T14:04:49.900Z,101258.63
2023-04-29T14:07:16.746Z,101253.09
2023-04-29T14:09:43.348Z,101257.34
2023-04-29T14:12:09.780Z,101255.66
2023-04-29T14:14:36.181Z,101258.81
2023-04-29T14:17:03.679Z,101252.59
2023-04-29T14:19:30.318Z,101264.06
2023-04-29T14:21:56.761Z,101256.84
2023-04-29T14:24:23.313Z,101263.63
2023-04-29T14:26:49.766Z,101262.31
2023-04-29T14:29:16.156Z,101263.81
2023-04-29T14:31:42.613Z,101261.84
2023-04-29T14:34:09.546Z,101261.81
2023-04-29T14:36:35.998Z,101264.97
2023-04-29T14:39:03.976Z,101269.66
2023-04-29T14:41:30.433Z,101271.81
2023-04-29T14:43:56.874Z,101275.03
2023-04-29T14:46:23.420Z,101274.41
2023-04-29T14:48:49.917Z,101278.91
2023-04-29T14:51:16.376Z,101282.78
2023-04-29T14:53:43.029Z,101286.66
2023-04-29T14:56:09.532Z,101297.34
2023-04-29T14:58:36.019Z,101295.00
2023-04-29T15:01:02.455Z,101303.53
2023-04-29T15:03:29.182Z,101307.81
2023-04-29T15:05:56.289Z,101301.66
2023-04-29T15:08:22.782Z,101301.25
2023-04-29T15:10:50.095Z,101296.56
2023-04-29T15:13:16.731Z,101300.13
2023-04-29T15:15:43.275Z,101295.25
2023-04-29T15:18:09.797Z,101298.81
2023-04-29T15:20:37.198Z,101302.81
2023-04-29T15:23:05.117Z,101305.31
2023-04-29T15:25:34.246Z,101308.25
2023-04-29T15:28:02.091Z,101303.81
2023-04-29T15:30:28.820Z,101308.19
2023-04-29T15:32:55.705Z,101304.28
2023-04-29T15:35:22.641Z,101310.47
2023-04-29T15:37:49.535Z,101310.19
2023-04-29T15:40:16.922Z,101298.19
2023-04-29T15:42:43.467Z,101304.97
2023-04-29T15:45:10.511Z,101318.22
2023-04-29T15:47:37.002Z,101300.03
2023-04-29T15:50:03.602Z,101302.38
2023-04-29T15:52:30.022Z,101298.94
2023-04-29T15:54:56.483Z,101300.41
2023-04-29T15:57:23.096Z,101295.28
2023-04-29T15:59:49.510Z,101291.19
2023-04-29T16:02:16.004Z,101299.03
2023-04-29T16:04:42.500Z,101297.13
2023-04-29T16:07:09.247Z,101295.19
2023-04-29T16:09:35.991Z,101291.56
2023-04-29T16:12:02.452Z,101294.72
2023-04-29T16:14:30.000Z,101294.28
2023-04-29T16:16:56.677Z,101297.50
2023-04-29T16:19:23.288Z,101289.44
2023-04-29T16:21:49.786Z,101298.44
2023-04-29T16:24:16.283Z,101292.13
2023-04-29T16:26:42.859Z,101294.69
2023-04-29T16:29:12.320Z,101296.84
2023-04-29T16:31:39.472Z,101309.44
2023-04-29T16:34:05.986Z,101296.06
2023-04-29T16:36:32.791Z,101297.97
2023-04-29T16:38:59.230Z,101307.16
2023-04-29T16:41:28.449Z,101306.31
2023-04-29T16:43:54.893Z,101300.38
2023-04-29T16:46:21.652Z,101298.72
2023-04-29T16:48:51.246Z,101299.13
2023-04-29T16:51:18.812Z,101304.28
2023-04-29T16:53:45.653Z,101303.47
2023-04-29T16:56:12.357Z,101309.81
2023-04-29T16:58:39.000Z,101307.31
2023-04-29T17:01:07.280Z,101309.22
2023-04-29T17:03:33.812Z,101312.19
2023-04-29T17:06:00.573Z,101313.06
2023-04-29T17:08:27.242Z,101311.38
2023-04-29T17:10:53.975Z,101315.81
2023-04-29T17:13:20.784Z,101319.22
2023-04-29T17:15:47.637Z,101310.28
2023-04-29T17:18:14.077Z,101308.59
2023-04-29T17:20:40.587Z,101317.53
2023-04-29T17:23:07.041Z,101308.16
2023-04-29T17:25:33.499Z,101315.38
2023-04-29T17:28:00.231Z,101309.59
2023-04-29T17:30:26.841Z,101315.75
2023-04-29T17:32:53.599Z,101324.50
2023-04-29T17:35:21.272Z,101321.47
2023-04-29T17:37:48.729Z,101324.50
2023-04-29T17:40:16.119Z,101328.06
2023-04-29T17:42:43.459Z,101322.34
2023-04-29T17:45:10.378Z,101332.34
2023-04-29T17:47:36.867Z,101319.56
2023-04-29T17:50:03.808Z,101328.47
2023-04-29T17:52:30.308Z,101325.09
2023-04-29T17:54:56.717Z,101325.09
2023-04-29T17:57:23.166Z,101327.25
2023-04-29T17:59:49.712Z,101335.78
2023-04-29T18:02:16.345Z,101339.00
2023-04-29T18:04:42.790Z,101340.28
2023-04-29T18:07:09.232Z,101346.28
2023-04-29T18:09:35.753Z,101348.44
2023-04-29T18:12:02.368Z,101338.41
2023-04-29T18:14:30.556Z,101336.72
2023-04-29T18:16:59.665Z,101339.72
2023-04-29T18:19:33.477Z,101337.41
2023-04-29T18:22:02.670Z,101343.16
2023-04-29T18:24:29.396Z,101340.22
2023-04-29T18:26:57.192Z,101344.06
2023-04-29T18:29:23.707Z,101340.66
2023-04-29T18:31:50.233Z,101341.97
2023-04-29T18:34:16.736Z,101342.41
2023-04-29T18:36:43.174Z,101348.16
2023-04-29T18:39:09.711Z,101328.78
2023-04-29T18:41:36.673Z,101334.13
2023-04-29T18:44:03.054Z,101338.00
2023-04-29T18:46:30.504Z,101331.81
2023-04-29T18:48:57.041Z,101321.22
2023-04-29T18:51:23.674Z,101327.19
2023-04-29T18:53:50.297Z,101332.31
2023-04-29T18:56:16.725Z,101341.69
2023-04-29T18:58:43.136Z,101339.56
2023-04-29T19:01:09.857Z,101351.94
2023-04-29T19:03:36.619Z,101349.84
2023-04-29T19:06:03.702Z,101358.56
2023-04-29T19:08:30.156Z,101357.97
2023-04-29T19:10:57.985Z,101367.78
2023-04-29T19:13:26.591Z,101364.81
2023-04-29T19:15:55.006Z,101370.78
2023-04-29T19:18:23.087Z,101367.38
2023-04-29T19:20:49.987Z,101376.97
2023-04-29T19:23:16.383Z,101377.41
2023-04-29T19:25:42.888Z,101377.00
2023-04-29T19:28:10.119Z,101384.63
2023-04-29T19:30:36.597Z,101388.69
2023-04-29T19:33:03.203Z,101390.41
2023-04-29T19:35:29.704Z,101391.66
2023-04-29T19:37:56.079Z,101395.09
2023-04-29T19:40:22.509Z,101400.22
2023-04-29T19:42:48.910Z,101395.09
2023-04-29T19:45:15.397Z,101395.53
2023-04-29T19:47:41.853Z,101406.16
2023-04-29T19:50:09.648Z,101400.47
2023-04-29T19:52:36.117Z,101404.72
2023-04-29T19:55:02.501Z,101397.06
2023-04-29T19:57:28.955Z,101402.19
2023-04-29T19:59:55.703Z,101396.44
2023-04-29T20:02:22.413Z,101394.53
2023-04-29T20:04:48.932Z,101401.56
2023-04-29T20:07:15.462Z,101387.94
2023-04-29T20:09:42.039Z,101397.31
2023-04-29T20:12:08.480Z,101400.69
2023-04-29T20:14:34.927Z,101405.38
2023-04-29T20:17:01.552Z,101409.84
2023-04-29T20:19:28.143Z,101394.34
2023-04-29T20:21:54.608Z,101398.56
2023-04-29T20:24:21.121Z,101397.28
2023-04-29T20:26:47.754Z,101405.34
2023-04-29T20:29:14.288Z,101403.44
2023-04-29T20:31:40.840Z,101412.34
2023-04-29T20:34:07.317Z,101409.13
2023-04-29T20:36:34.492Z,101413.38
2023-04-29T20:39:01.394Z,101414.84
2023-04-29T20:41:28.908Z,101417.16
2023-04-29T20:43:56.023Z,101422.25
2023-04-29T20:46:24.651Z,101419.88
2023-04-29T20:48:52.451Z,101422.03
2023-04-29T20:51:18.954Z,101428.59
2023-04-29T20:53:45.913Z,101430.72
2023-04-29T20:56:13.524Z,101427.09
2023-04-29T20:58:39.955Z,101429.00
2023-04-29T21:01:06.562Z,101434.72
2023-04-29T21:03:32.984Z,101437.28
2023-04-29T21:05:59.391Z,101433.66
2023-04-29T21:08:25.912Z,101433.00
2023-04-29T21:10:52.362Z,101433.00
2023-04-29T21:13:18.843Z,101426.66
2023-04-29T21:15:46.476Z,101433.00
2023-04-29T21:18:13.587Z,101433.22
2023-04-29T21:20:40.442Z,101435.31
2023-04-29T21:23:06.813Z,101438.31
2023-04-29T21:25:33.243Z,101438.50
2023-04-29T21:27:59.676Z,101436.81
2023-04-29T21:30:26.097Z,101430.66
2023-04-29T21:32:53.345Z,101426.41
2023-04-29T21:35:19.818Z,101435.91
2023-04-29T21:37:47.129Z,101440.81
2023-04-29T21:40:14.371Z,101436.34
2023-04-29T21:42:43.472Z,101429.13
2023-04-29T21:45:10.619Z,101436.75
2023-04-29T21:47:37.126Z,101437.78
2023-04-29T21:50:03.611Z,101436.94
2023-04-29T21:52:34.846Z,101445.44
2023-04-29T21:55:04.901Z,101439.94
2023-04-29T21:57:42.725Z,101444.59
2023-04-29T22:00:20.656Z,101445.84
2023-04-29T22:02:47.380Z,101446.91
2023-04-29T22:05:13.967Z,101441.56
2023-04-29T22:07:40.689Z,101453.47
2023-04-29T22:10:07.556Z,101447.31
2023-04-29T22:12:33.946Z,101452.16
2023-04-29T22:15:00.354Z,101453.88
2023-04-29T22:17:26.730Z,101463.19
2023-04-29T22:19:53.468Z,101459.38
2023-04-29T22:22:20.032Z,101462.81
2023-04-29T22:24:46.424Z,101461.09
2023-04-29T22:27:12.871Z,101465.56
2023-04-29T22:29:39.403Z,101468.31
2023-04-29T22:32:05.924Z,101470.41
2023-04-29T22:34:32.413Z,101474.03
2023-04-29T22:36:58.804Z,101471.28
2023-04-29T22:39:25.268Z,101467.66
2023-04-29T22:41:51.628Z,101469.78
2023-04-29T22:44:18.021Z,101481.84
2023-04-29T22:46:44.477Z,101471.00
2023-04-29T22:49:10.954Z,101480.38
2023-04-29T22:51:37.472Z,101480.56
2023-04-29T22:54:03.953Z,101479.69
2023-04-29T22:56:30.445Z,101482.69
2023-04-29T22:58:56.894Z,101480.09
2023-04-29T23:01:23.372Z,101479.25
2023-04-29T23:03:49.791Z,101484.13
2023-04-29T23:06:16.430Z,101486.88
2023-04-29T23:08:44.504Z,101488.97
2023-04-29T23:11:12.053Z,101488.97
2023-04-29T23:13:39.143Z,101490.69
2023-04-29T23:16:07.123Z,101487.25
2023-04-29T23:18:35.008Z,101484.50
2023-04-29T23:21:01.404Z,101489.38
2023-04-29T23:23:27.843Z,101491.28
2023-04-29T23:25:54.264Z,101490.25
2023-04-29T23:28:21.118Z,101495.94
2023-04-29T23:30:48.175Z,101493.19
2023-04-29T23:33:14.712Z,101502.53
2023-04-29T23:35:41.114Z,101499.97
2023-04-29T23:38:07.588Z,101491.88
2023-04-29T23:40:34.160Z,101499.09
2023-04-29T23:43:00.644Z,101494.63
2023-04-29T23:45:27.079Z,101498.25
2023-04-29T23:47:53.553Z,101500.81
2023-04-29T23:50:20.042Z,101497.41
2023-04-29T23:52:46.454Z,101499.09
2023-04-29T23:55:12.879Z,101497.41
2023-04-29T23:57:39.291Z,101499.09
